Adak, AK (99546)

10:54 PM HDT on May 22, 2015 (GMT -0900)
Adak | | Change Station
CLOSE
Current Station
Airport
Location: Adak,
Elevation: 13 ft
Nearby Weather Stations

Elev 13 ft 51.88 °N, 176.65 °W | Updated 18 minutes ago

Overcast
Overcast
43 °F
Feels Like 34 °F
N
22
Wind Variable Wind from WSW
Gusts 30 mph

Today
High -- | Low -- °F
--% Chance of Precip.
Yesterday
High -- | Low -- °F
Precip. -- in
6:43 AM 10:44 PM
Waxing Crescent, 28% visible
Pressure 29.23 in
Visibility 10.0 miles
Clouds Few 2700 ft
Mostly Cloudy 3300 ft
Overcast 4900 ft
Windchill 34 °F
Dew Point 34 °F
Humidity 70%
Rainfall 0.08 in
Snow Depth Not available.
UV 0 out of 12
Pollen Not available.
Air Quality Not available.
Flu Activity Local Activity
METAR PADK 230736Z 25019G26KT 10SM FEW027 BKN033 OVC049 06/01 A2923 RMK AO1

More Conditions Fewer Conditions

Pressure 29.23 in
Visibility 10.0 miles
Clouds Few 2700 ft
Mostly Cloudy 3300 ft
Overcast 4900 ft
Windchill 34 °F
Dew Point 34 °F
Humidity 70%
Rainfall 0.08 in
Snow Depth Not available.
UV 0 out of 12
Pollen Not available.
Air Quality Not available.
Flu Activity Local Activity
METAR PADK 230736Z 25019G26KT 10SM FEW027 BKN033 OVC049 06/01 A2923 RMK AO1

More Conditions Fewer Conditions

10-Day Weather Forecast

Almanac

Astronomy

May. 22, 2015 Rise Set
Actual Time
Civil Twilight
Nautical Twilight
Astronomical Twilight
Moon
Length of Visible Light
Length of Day
Tomorrow will be .
, % of the Moon is Illuminated

Today's Extremes

State Highs State Lows

Community

WunderPhotos

Upload Photos

1,823,400 photos uploaded!

WunderBlogs® & News

Nearby

Air Quality

  Air Quality AQ Index Pollutant
Not available.

Snow Depth

Station Depth Elevation

Earthquake Activity

City Distance Mag. Time & Date
Minimum magnitude displayed is 2.5.

Coastal Water Temperatures

Place Temperature

Stations

Nearby Weather Stations

Station Location Temp. Windchill Dew Point Humidity Wind Precip. Elev Updated Type